createdAt,value
2022-12-11T00:04:18.460Z,100.00
2022-12-11T00:09:20.994Z,100.00
2022-12-11T00:14:22.457Z,100.00
2022-12-11T00:19:23.923Z,100.00
2022-12-11T00:24:25.410Z,100.00
2022-12-11T00:29:26.923Z,100.00
2022-12-11T00:34:28.423Z,100.00
2022-12-11T00:39:29.878Z,100.00
2022-12-11T00:44:31.388Z,100.00
2022-12-11T00:49:33.007Z,100.00
2022-12-11T00:54:34.583Z,100.00
2022-12-11T00:59:36.019Z,100.00
2022-12-11T01:04:37.521Z,100.00
2022-12-11T01:09:57.968Z,100.00
2022-12-11T01:14:59.406Z,100.00
2022-12-11T01:20:00.850Z,100.00
2022-12-11T01:25:02.648Z,100.00
2022-12-11T01:30:07.476Z,100.00
2022-12-11T01:35:09.920Z,100.00
2022-12-11T01:40:16.855Z,100.00
2022-12-11T01:45:40.322Z,100.00
2022-12-11T01:50:52.230Z,100.00
2022-12-11T01:55:57.127Z,100.00
2022-12-11T02:00:59.240Z,100.00
2022-12-11T02:06:01.847Z,100.00
2022-12-11T02:11:21.013Z,100.00
2022-12-11T02:16:42.126Z,100.00
2022-12-11T02:21:49.370Z,100.00
2022-12-11T02:27:08.853Z,100.00
2022-12-11T02:32:31.310Z,100.00
2022-12-11T02:37:38.019Z,100.00
2022-12-11T02:42:42.478Z,100.00
2022-12-11T02:47:47.159Z,100.00
2022-12-11T02:52:51.764Z,100.00
2022-12-11T02:58:00.371Z,100.00
2022-12-11T03:03:02.435Z,100.00
2022-12-11T03:08:04.383Z,100.00
2022-12-11T03:13:05.896Z,100.00
2022-12-11T03:18:32.100Z,100.00
2022-12-11T03:23:44.020Z,100.00
2022-12-11T03:28:59.573Z,100.00
2022-12-11T03:34:04.462Z,100.00
2022-12-11T03:39:12.505Z,100.00
2022-12-11T03:44:15.906Z,100.00
2022-12-11T03:49:22.068Z,100.00
2022-12-11T03:54:24.836Z,100.00
2022-12-11T03:59:26.284Z,100.00
2022-12-11T04:04:27.826Z,100.00
2022-12-11T04:09:29.438Z,100.00
2022-12-11T04:14:49.557Z,100.00
2022-12-11T04:20:09.518Z,100.00
2022-12-11T04:25:11.375Z,100.00
2022-12-11T04:30:16.574Z,100.00
2022-12-11T04:35:20.110Z,100.00
2022-12-11T04:40:22.459Z,100.00
2022-12-11T04:45:23.940Z,100.00
2022-12-11T04:50:25.972Z,100.00
2022-12-11T04:55:27.392Z,100.00
2022-12-11T05:00:28.821Z,100.00
2022-12-11T05:05:30.328Z,100.00
2022-12-11T05:10:31.906Z,100.00
2022-12-11T05:15:33.394Z,100.00
2022-12-11T05:20:34.888Z,100.00
2022-12-11T05:25:36.328Z,100.00
2022-12-11T05:30:37.880Z,100.00
2022-12-11T05:35:39.363Z,100.00
2022-12-11T05:40:40.908Z,100.00
2022-12-11T05:45:42.349Z,100.00
2022-12-11T05:50:43.904Z,100.00
2022-12-11T05:55:45.332Z,100.00
2022-12-11T06:00:47.889Z,100.00
2022-12-11T06:05:49.453Z,100.00
2022-12-11T06:10:51.006Z,100.00
2022-12-11T06:15:53.116Z,100.00
2022-12-11T06:20:54.726Z,100.00
2022-12-11T06:25:56.183Z,100.00
2022-12-11T06:31:01.264Z,100.00
2022-12-11T06:36:04.431Z,100.00
2022-12-11T06:41:07.257Z,100.00
2022-12-11T06:46:11.690Z,100.00
2022-12-11T06:51:16.265Z,100.00
2022-12-11T06:56:17.744Z,100.00
2022-12-11T07:01:27.314Z,100.00
2022-12-11T07:06:29.838Z,100.00
2022-12-11T07:11:31.340Z,100.00
2022-12-11T07:16:32.955Z,100.00
2022-12-11T07:21:34.692Z,100.00
2022-12-11T07:26:36.168Z,100.00
2022-12-11T07:31:37.739Z,100.00
2022-12-11T07:36:39.355Z,100.00
2022-12-11T07:41:40.963Z,100.00
2022-12-11T07:46:42.609Z,100.00
2022-12-11T07:51:44.124Z,100.00
2022-12-11T07:56:52.781Z,100.00
2022-12-11T08:01:55.162Z,100.00
2022-12-11T08:06:57.780Z,100.00
2022-12-11T08:11:59.298Z,100.00
2022-12-11T08:17:02.515Z,100.00
2022-12-11T08:22:04.156Z,100.00
2022-12-11T08:27:05.721Z,99.12
2022-12-11T08:32:12.072Z,99.70
2022-12-11T08:37:13.999Z,98.92
2022-12-11T08:42:15.512Z,98.84
2022-12-11T08:47:17.067Z,98.79
2022-12-11T08:52:18.707Z,97.84
2022-12-11T08:57:20.213Z,97.53
2022-12-11T09:02:21.830Z,97.25
2022-12-11T09:07:23.336Z,97.45
2022-12-11T09:12:24.987Z,97.20
2022-12-11T09:17:26.947Z,96.73
2022-12-11T09:22:28.683Z,96.38
2022-12-11T09:27:30.210Z,95.28
2022-12-11T09:32:31.825Z,95.71
2022-12-11T09:37:34.006Z,94.24
2022-12-11T09:43:03.303Z,93.82
2022-12-11T09:48:05.203Z,93.69
2022-12-11T09:53:19.561Z,93.88
2022-12-11T09:58:21.011Z,92.91
2022-12-11T10:03:37.137Z,91.66
2022-12-11T10:08:41.587Z,91.39
2022-12-11T10:13:46.086Z,91.06
2022-12-11T10:18:49.174Z,90.54
2022-12-11T10:23:58.564Z,91.03
2022-12-11T10:29:01.873Z,90.13
2022-12-11T10:34:11.745Z,90.20
2022-12-11T10:39:22.110Z,89.29
2022-12-11T10:44:28.403Z,86.75
2022-12-11T10:49:31.973Z,89.17
2022-12-11T10:54:38.310Z,89.02
2022-12-11T10:59:50.054Z,88.78
2022-12-11T11:04:53.192Z,89.16
2022-12-11T11:10:14.260Z,88.34
2022-12-11T11:15:18.095Z,88.65
2022-12-11T11:20:22.648Z,88.65
2022-12-11T11:25:27.011Z,88.08
2022-12-11T11:30:38.513Z,88.04
2022-12-11T11:35:45.658Z,87.90
2022-12-11T11:41:14.777Z,87.04
2022-12-11T11:46:38.608Z,87.28
2022-12-11T11:51:46.272Z,87.55
2022-12-11T11:56:53.809Z,87.50
2022-12-11T12:01:57.173Z,87.37
2022-12-11T12:07:10.646Z,86.83
2022-12-11T12:12:37.220Z,85.87
2022-12-11T12:17:56.476Z,86.78
2022-12-11T12:23:14.295Z,86.27
2022-12-11T12:28:27.874Z,86.50
2022-12-11T12:34:21.858Z,84.60
2022-12-11T12:39:48.273Z,85.63
2022-12-11T12:45:07.915Z,85.37
2022-12-11T12:50:13.891Z,84.96
2022-12-11T12:55:29.009Z,83.69
2022-12-11T13:00:30.484Z,83.96
2022-12-11T13:05:34.465Z,84.85
2022-12-11T13:10:38.093Z,84.65
2022-12-11T13:15:43.828Z,85.19
2022-12-11T13:20:51.765Z,85.30
2022-12-11T13:25:59.590Z,85.24
2022-12-11T13:31:24.103Z,85.96
2022-12-11T13:36:37.801Z,85.62
2022-12-11T13:41:40.446Z,86.43
2022-12-11T13:46:44.067Z,86.04
2022-12-11T13:51:53.228Z,86.60
2022-12-11T13:57:00.418Z,86.43
2022-12-11T14:02:12.970Z,86.94
2022-12-11T14:07:20.798Z,87.60
2022-12-11T14:12:22.421Z,88.02
2022-12-11T14:17:27.540Z,88.18
2022-12-11T14:22:30.470Z,87.66
2022-12-11T14:27:32.244Z,87.92
2022-12-11T14:32:45.021Z,88.48
2022-12-11T14:37:46.904Z,88.96
2022-12-11T14:43:00.011Z,88.71
2022-12-11T14:48:07.776Z,89.31
2022-12-11T14:53:29.305Z,89.19
2022-12-11T14:58:33.092Z,89.55
2022-12-11T15:03:37.083Z,89.95
2022-12-11T15:08:38.662Z,89.96
2022-12-11T15:14:02.997Z,89.98
2022-12-11T15:19:04.691Z,90.11
2022-12-11T15:24:07.107Z,90.46
2022-12-11T15:29:30.760Z,90.56
2022-12-11T15:34:43.072Z,90.68
2022-12-11T15:39:44.648Z,89.98
2022-12-11T15:44:46.369Z,89.81
2022-12-11T15:49:47.776Z,89.60
2022-12-11T15:54:49.200Z,89.37
2022-12-11T15:59:52.663Z,89.15
2022-12-11T16:04:54.498Z,89.74
2022-12-11T16:09:55.918Z,90.38
2022-12-11T16:14:57.409Z,89.75
2022-12-11T16:19:58.963Z,90.03
2022-12-11T16:25:00.508Z,89.70
2022-12-11T16:30:01.985Z,89.40
2022-12-11T16:35:03.750Z,89.94
2022-12-11T16:40:06.696Z,89.78
2022-12-11T16:45:12.745Z,90.46
2022-12-11T16:50:15.716Z,90.80
2022-12-11T16:55:21.049Z,90.88
2022-12-11T17:00:22.795Z,90.84
2022-12-11T17:05:24.889Z,90.50
2022-12-11T17:10:26.331Z,91.56
2022-12-11T17:15:27.927Z,91.89
2022-12-11T17:20:29.472Z,91.48
2022-12-11T17:25:30.994Z,92.37
2022-12-11T17:30:32.890Z,91.65
2022-12-11T17:35:34.592Z,92.04
2022-12-11T17:40:40.300Z,91.57
2022-12-11T17:45:43.436Z,91.96
2022-12-11T17:50:47.026Z,92.97
2022-12-11T17:55:49.818Z,93.09
2022-12-11T18:00:55.714Z,93.86
2022-12-11T18:05:57.799Z,94.56
2022-12-11T18:11:13.467Z,94.39
2022-12-11T18:16:18.154Z,94.46
2022-12-11T18:21:22.709Z,94.57
2022-12-11T18:26:24.503Z,95.29
2022-12-11T18:31:26.206Z,95.58
2022-12-11T18:36:27.771Z,96.11
2022-12-11T18:41:29.241Z,96.25
2022-12-11T18:46:30.734Z,96.31
2022-12-11T18:51:32.280Z,96.60
2022-12-11T18:56:33.826Z,97.20
2022-12-11T19:01:35.455Z,96.90
2022-12-11T19:06:37.002Z,97.20
2022-12-11T19:11:40.506Z,97.00
2022-12-11T19:16:45.390Z,97.50
2022-12-11T19:21:47.507Z,99.02
2022-12-11T19:26:49.412Z,99.08
2022-12-11T19:31:51.651Z,98.69
2022-12-11T19:36:53.773Z,98.79
2022-12-11T19:41:55.412Z,99.87
2022-12-11T19:46:56.998Z,99.16
2022-12-11T19:51:58.715Z,99.76
2022-12-11T19:57:00.228Z,98.53
2022-12-11T20:02:01.750Z,98.25
2022-12-11T20:07:03.910Z,97.74
2022-12-11T20:12:10.195Z,97.33
2022-12-11T20:17:14.627Z,97.24
2022-12-11T20:22:16.505Z,96.93
2022-12-11T20:27:18.155Z,96.54
2022-12-11T20:32:19.727Z,96.89
2022-12-11T20:37:21.242Z,97.01
2022-12-11T20:42:24.117Z,96.95
2022-12-11T20:47:25.887Z,97.06
2022-12-11T20:52:28.150Z,97.49
2022-12-11T20:57:29.575Z,97.48
2022-12-11T21:02:31.293Z,97.42
2022-12-11T21:07:32.871Z,97.00
2022-12-11T21:12:34.322Z,96.87
2022-12-11T21:17:35.954Z,96.21
2022-12-11T21:22:37.514Z,96.67
2022-12-11T21:27:39.091Z,97.05
2022-12-11T21:32:41.345Z,96.91
2022-12-11T21:37:42.789Z,96.77
2022-12-11T21:42:44.232Z,96.27
2022-12-11T21:47:45.730Z,96.70
2022-12-11T21:52:47.563Z,96.57
2022-12-11T21:57:49.078Z,95.92
2022-12-11T22:02:50.866Z,95.83
2022-12-11T22:07:52.414Z,96.52
2022-12-11T22:12:53.922Z,95.94
2022-12-11T22:17:55.383Z,96.00
2022-12-11T22:22:56.913Z,95.48
2022-12-11T22:27:58.350Z,95.82
2022-12-11T22:32:59.839Z,94.26
2022-12-11T22:38:01.743Z,94.24
2022-12-11T22:43:03.209Z,93.90
2022-12-11T22:48:05.162Z,93.68
2022-12-11T22:53:06.652Z,92.68
2022-12-11T22:58:08.071Z,92.86
2022-12-11T23:03:09.712Z,92.54
2022-12-11T23:08:11.351Z,92.61
2022-12-11T23:13:12.825Z,92.88
2022-12-11T23:18:14.367Z,93.22
2022-12-11T23:23:15.779Z,93.03
2022-12-11T23:28:17.270Z,92.83
2022-12-11T23:33:18.823Z,92.30
2022-12-11T23:38:20.288Z,92.65
2022-12-11T23:43:22.237Z,92.86
2022-12-11T23:48:23.722Z,92.63
2022-12-11T23:53:25.219Z,93.33
2022-12-11T23:58:26.646Z,92.86
